Time;durP1;ratioP1;P1;durP2;ratioP2;P2;SDS_P1;SDS_P2;PMS_P1;PMS_P2;Temp;Humidity;BMP_temperature;BMP_pressure;BME280_temperature;BME280_humidity;BME280_pressure;Samples;Min_cycle;Max_cycle;Signal;HPM_P1;HPM_P2
2022/08/22 00:01:35;;;;;;;7.13;5.82;;;;;;;20.57;70.96;94009.72;4155363;28;20132;-65
2022/08/22 00:04:11;;;;;;;8.10;6.25;;;;;;;20.58;70.94;94000.72;4153040;28;20488;-68
2022/08/22 00:06:33;;;;;;;9.48;5.88;;;;;;;20.63;70.78;93998.16;4152010;28;20415;-67
2022/08/22 00:08:45;;;;;;;8.40;5.53;;;;;;;20.72;70.67;93999.38;4159277;28;20056;-67
2022/08/22 00:11:02;;;;;;;8.82;5.90;;;;;;;20.77;70.32;94002.13;4169617;28;20049;-68
2022/08/22 00:13:23;;;;;;;9.10;5.82;;;;;;;20.80;70.25;93998.16;4130813;28;20456;-67
2022/08/22 00:15:42;;;;;;;8.52;5.95;;;;;;;20.79;70.13;93994.72;4160588;28;20088;-65
2022/08/22 00:18:00;;;;;;;8.65;6.90;;;;;;;20.80;70.01;94006.97;4147529;28;20121;-68
2022/08/22 00:20:17;;;;;;;7.85;6.35;;;;;;;20.89;69.68;93993.25;4143573;28;20059;-68
2022/08/22 00:22:25;;;;;;;8.68;6.57;;;;;;;20.97;69.37;94000.88;4129970;28;20082;-68
2022/08/22 00:24:36;;;;;;;11.23;7.80;;;;;;;21.03;69.06;93994.56;4140714;28;20140;-69
2022/08/22 00:27:17;;;;;;;11.20;8.57;;;;;;;20.94;69.34;93993.38;4146340;28;20072;-68
2022/08/22 00:29:31;;;;;;;12.63;9.48;;;;;;;20.83;69.42;93987.84;4137824;28;20053;-67
2022/08/22 00:31:55;;;;;;;11.82;8.60;;;;;;;20.86;69.84;93990.06;4152152;28;20046;-67
2022/08/22 00:34:16;;;;;;;;;;;;;;;20.89;69.26;93990.59;4131303;28;20081;-66
2022/08/22 00:36:38;;;;;;;9.93;8.68;;;;;;;20.90;69.52;93990.38;4156605;28;20478;-67
2022/08/22 00:38:47;;;;;;;12.53;8.83;;;;;;;20.87;69.49;93996.19;4159058;28;20052;-68
2022/08/22 00:41:03;;;;;;;12.90;10.27;;;;;;;20.85;69.69;93993.75;4141739;28;20165;-68
2022/08/22 00:43:14;;;;;;;11.73;9.68;;;;;;;20.82;69.42;93986.25;4128138;28;20130;-68
2022/08/22 00:45:46;;;;;;;12.32;9.57;;;;;;;20.79;69.68;93989.38;4141792;28;20520;-69
2022/08/22 00:48:19;;;;;;;11.18;9.50;;;;;;;20.79;69.75;93986.72;4167047;28;20413;-65
2022/08/22 00:51:02;;;;;;;11.93;9.18;;;;;;;20.83;69.85;93979.06;4167857;28;20449;-68
2022/08/22 00:53:27;;;;;;;16.20;10.63;;;;;;;20.80;69.81;93977.72;4157466;28;20144;-67
2022/08/22 00:55:44;;;;;;;11.32;9.35;;;;;;;20.79;69.62;93978.75;4174543;28;20055;-68
2022/08/22 00:58:01;;;;;;;16.83;10.23;;;;;;;20.80;69.62;93976.88;4174924;28;20052;-66
2022/08/22 01:00:12;;;;;;;12.25;10.35;;;;;;;20.76;69.84;93981.09;4164674;28;20049;-69
2022/08/22 01:02:56;;;;;;;11.75;10.00;;;;;;;20.78;69.95;93974.47;4174742;28;20506;-68
2022/08/22 01:05:20;;;;;;;11.15;9.93;;;;;;;20.77;69.84;93980.03;4138469;28;20235;-68
2022/08/22 01:07:22;;;;;;;11.50;9.85;;;;;;;20.77;69.80;93982.69;4169062;28;20053;-67
2022/08/22 01:09:42;;;;;;;11.32;10.15;;;;;;;20.77;69.72;93980.03;4162745;28;20047;-66
2022/08/22 01:12:02;;;;;;;12.05;10.35;;;;;;;20.76;69.60;93973.09;4145666;28;20057;-68
2022/08/22 01:14:13;;;;;;;12.73;9.85;;;;;;;20.70;69.98;93980.19;4162004;28;20136;-67
2022/08/22 01:16:33;;;;;;;12.05;10.07;;;;;;;20.66;70.07;93976.38;4161480;28;20129;-68
2022/08/22 01:19:02;;;;;;;15.30;11.30;;;;;;;20.68;69.87;93976.16;4169027;28;20403;-68
2022/08/22 01:21:51;;;;;;;12.63;10.32;;;;;;;20.66;70.10;93973.72;4162628;28;20060;-68
2022/08/22 01:24:12;;;;;;;12.60;10.02;;;;;;;20.58;70.41;93972.25;4115055;28;20146;-68
2022/08/22 01:26:52;;;;;;;12.23;10.45;;;;;;;20.53;70.45;93979.31;4103601;28;20435;-68
2022/08/22 01:29:35;;;;;;;11.60;9.98;;;;;;;20.53;70.59;93979.31;4101393;28;20147;-69
2022/08/22 01:32:03;;;;;;;14.68;10.90;;;;;;;20.50;70.79;93980.59;4106038;28;20050;-68
2022/08/22 01:34:36;;;;;;;10.80;9.50;;;;;;;20.60;70.59;93985.31;4058465;28;20057;-68
2022/08/22 01:36:43;;;;;;;12.30;9.88;;;;;;;20.63;70.35;93987.50;4099390;28;20074;-67
2022/08/22 01:39:21;;;;;;;12.20;10.65;;;;;;;20.66;70.03;93987.81;4109743;28;20569;-67
2022/08/22 01:41:41;;;;;;;13.25;10.25;;;;;;;20.71;69.98;93996.94;4110629;28;20101;-67
2022/08/22 01:44:21;;;;;;;14.80;10.32;;;;;;;20.78;69.50;93993.09;4103656;28;20414;-67
2022/08/22 01:46:39;;;;;;;11.50;10.30;;;;;;;20.80;69.13;93990.19;4107122;28;20113;-68
2022/08/22 01:48:51;;;;;;;12.88;10.90;;;;;;;20.81;69.19;93989.16;4105117;28;20445;-68
2022/08/22 01:50:57;;;;;;;13.00;10.95;;;;;;;20.74;69.10;93976.00;4104097;28;20058;-67
2022/08/22 01:53:02;;;;;;;14.20;11.35;;;;;;;20.62;69.50;93978.69;4116607;28;20421;-67
2022/08/22 01:55:24;;;;;;;12.48;10.75;;;;;;;20.65;69.76;93982.75;4147025;28;20516;-68
2022/08/22 01:57:26;;;;;;;13.40;10.80;;;;;;;20.62;69.95;93985.88;4145400;28;20087;-68
2022/08/22 01:59:35;;;;;;;14.65;11.18;;;;;;;20.61;69.86;93981.63;4175245;28;20139;-67
2022/08/22 02:01:53;;;;;;;13.45;11.40;;;;;;;20.62;69.68;93983.22;4154050;28;20209;-67
2022/08/22 02:04:03;;;;;;;14.95;11.98;;;;;;;20.57;69.88;93985.78;4177891;28;20053;-66
2022/08/22 02:06:23;;;;;;;13.65;11.65;;;;;;;20.56;69.88;93979.63;4148525;28;20053;-66
2022/08/22 02:08:44;;;;;;;14.15;11.77;;;;;;;20.51;69.73;93979.53;4146745;28;20053;-68
2022/08/22 02:10:54;;;;;;;18.08;12.25;;;;;;;20.55;70.02;93982.53;4159421;28;20543;-67
2022/08/22 02:13:05;;;;;;;16.55;12.52;;;;;;;20.56;69.95;93974.31;4164777;28;20045;-66
2022/08/22 02:15:21;;;;;;;15.88;12.63;;;;;;;20.52;69.85;93977.69;4160148;28;20057;-69
2022/08/22 02:17:45;;;;;;;14.73;12.48;;;;;;;20.45;70.22;93983.94;4177073;28;20496;-68
2022/08/22 02:19:57;;;;;;;14.57;12.32;;;;;;;20.44;70.38;93982.34;4144191;28;20058;-68
2022/08/22 02:22:04;;;;;;;15.82;12.60;;;;;;;20.45;70.03;93978.63;4158973;28;20111;-68
2022/08/22 02:24:35;;;;;;;15.82;12.65;;;;;;;20.45;70.03;93985.81;4160121;28;20041;-67
2022/08/22 02:26:43;;;;;;;15.38;12.90;;;;;;;20.48;69.99;93980.03;4176455;28;20408;-68
2022/08/22 02:28:57;;;;;;;14.88;12.35;;;;;;;20.46;69.70;93979.47;4132133;28;20054;-67
2022/08/22 02:31:06;;;;;;;;;;;;;;;20.42;69.77;93983.63;4177405;28;20072;-67
2022/08/22 02:33:15;;;;;;;16.08;12.93;;;;;;;20.34;69.67;93981.34;4158257;28;19960;-67
2022/08/22 02:35:32;;;;;;;20.23;12.70;;;;;;;20.23;70.45;93980.34;4150859;28;20519;-66
2022/08/22 02:37:33;;;;;;;16.65;12.63;;;;;;;20.24;70.61;93981.94;4158701;28;20081;-67
2022/08/22 02:40:14;;;;;;;18.48;12.52;;;;;;;20.22;70.40;93981.41;4178703;28;20100;-68
2022/08/22 02:42:20;;;;;;;15.48;12.93;;;;;;;20.24;70.34;93982.78;4117439;28;20091;-68
2022/08/22 02:44:39;;;;;;;15.88;12.52;;;;;;;20.21;70.49;93988.53;4176288;28;20045;-67
2022/08/22 02:47:07;;;;;;;14.40;12.15;;;;;;;20.25;70.32;93986.22;4175291;28;20052;-70
2022/08/22 02:49:19;;;;;;;17.40;13.18;;;;;;;20.25;70.14;93983.56;4175671;28;20057;-68
2022/08/22 02:51:53;;;;;;;16.08;12.85;;;;;;;20.20;70.29;93988.81;4156634;28;20270;-67
2022/08/22 02:54:19;;;;;;;15.50;12.85;;;;;;;20.19;70.20;93984.50;4175087;28;20541;-67
2022/08/22 02:56:33;;;;;;;16.63;13.25;;;;;;;20.22;70.17;93992.03;4156392;28;20080;-67
2022/08/22 02:58:55;;;;;;;16.63;13.73;;;;;;;20.21;70.01;93990.41;4161031;28;20536;-67
2022/08/22 03:01:32;;;;;;;16.17;13.18;;;;;;;20.07;70.48;93989.03;4158347;28;20056;-67
2022/08/22 03:03:40;;;;;;;16.17;13.02;;;;;;;20.01;70.76;93983.63;4167097;28;20060;-67
2022/08/22 03:05:42;;;;;;;14.90;12.93;;;;;;;20.02;70.95;93984.44;4173938;28;20053;-67
2022/08/22 03:07:51;;;;;;;16.17;13.55;;;;;;;20.00;70.65;93995.31;4160146;28;20057;-67
2022/08/22 03:10:06;;;;;;;16.75;13.77;;;;;;;20.00;70.72;93995.31;4170496;28;20129;-67
2022/08/22 03:12:24;;;;;;;13.77;12.18;;;;;;;19.96;70.69;93990.69;4150522;28;20049;-66
2022/08/22 03:14:53;;;;;;;15.27;13.25;;;;;;;19.97;70.82;93995.78;4159474;28;20049;-67
2022/08/22 03:17:18;;;;;;;15.73;12.88;;;;;;;20.02;70.54;94001.19;4159087;28;20597;-68
2022/08/22 03:19:29;;;;;;;14.82;12.65;;;;;;;20.02;70.31;93993.22;4159791;28;20057;-67
2022/08/22 03:21:44;;;;;;;16.42;13.48;;;;;;;20.02;70.39;94000.38;4159726;28;20053;-68
2022/08/22 03:24:08;;;;;;;15.20;12.88;;;;;;;20.05;70.26;94006.06;4172433;28;20040;-67
2022/08/22 03:26:39;;;;;;;16.08;12.80;;;;;;;20.05;70.13;93999.94;4158154;28;20555;-65
2022/08/22 03:28:51;;;;;;;15.43;12.73;;;;;;;20.01;70.50;93988.94;4166897;28;20048;-67
2022/08/22 03:31:14;;;;;;;15.90;12.63;;;;;;;19.97;70.37;94001.09;4159993;28;20053;-67
2022/08/22 03:33:25;;;;;;;15.60;12.38;;;;;;;19.97;70.36;94001.09;4175275;28;20045;-67
2022/08/22 03:35:48;;;;;;;15.18;12.43;;;;;;;19.98;70.54;94000.06;4176030;28;20126;-68
2022/08/22 03:37:56;;;;;;;16.40;12.13;;;;;;;19.97;70.61;93997.63;4174811;28;20455;-67
2022/08/22 03:40:05;;;;;;;16.65;13.20;;;;;;;20.04;70.36;94000.97;4154113;28;20128;-66
2022/08/22 03:42:22;;;;;;;20.10;13.20;;;;;;;19.96;70.15;94002.16;4172287;28;20416;-65
2022/08/22 03:44:48;;;;;;;15.45;12.63;;;;;;;20.01;70.30;93994.28;4176405;28;20282;-67
2022/08/22 03:47:09;;;;;;;15.27;12.35;;;;;;;19.95;70.21;94000.53;4158096;28;20193;-69
2022/08/22 03:49:40;;;;;;;16.70;12.70;;;;;;;19.92;70.76;93994.84;4158681;28;20222;-68
2022/08/22 03:52:23;;;;;;;19.73;13.07;;;;;;;19.93;70.64;93994.63;4157573;28;20053;-66
2022/08/22 03:54:52;;;;;;;15.70;12.43;;;;;;;19.94;70.72;93996.25;4158573;28;20154;-68
2022/08/22 03:57:05;;;;;;;16.00;12.38;;;;;;;19.95;70.63;93997.88;4150163;28;20455;-67
2022/08/22 03:59:21;;;;;;;17.58;12.88;;;;;;;19.99;70.67;93999.00;4176129;28;20056;-68
2022/08/22 04:01:35;;;;;;;16.38;13.20;;;;;;;19.97;70.16;93990.47;4143760;28;20049;-67
2022/08/22 04:04:10;;;;;;;16.17;12.85;;;;;;;20.02;70.41;93990.56;4170580;28;20452;-67
2022/08/22 04:06:28;;;;;;;15.77;11.82;;;;;;;20.03;70.11;93986.88;4176094;28;20056;-68
2022/08/22 04:08:48;;;;;;;13.98;11.32;;;;;;;20.09;69.95;93997.59;4158154;28;20049;-68
2022/08/22 04:11:16;;;;;;;14.40;12.32;;;;;;;20.12;69.70;93991.81;4154290;28;20057;-67
2022/08/22 04:13:39;;;;;;;16.05;12.15;;;;;;;20.14;69.58;93995.06;4152448;28;20342;-66
2022/08/22 04:16:09;;;;;;;14.37;12.83;;;;;;;20.19;69.38;93992.50;4163535;28;20045;-67
2022/08/22 04:18:26;;;;;;;18.27;12.75;;;;;;;20.17;69.64;93991.91;4165584;28;20638;-67
2022/08/22 04:21:05;;;;;;;14.88;12.15;;;;;;;20.25;69.50;93991.56;4144749;28;20064;-66
2022/08/22 04:23:43;;;;;;;17.02;12.38;;;;;;;20.32;68.94;93994.88;4141160;28;20058;-66
2022/08/22 04:26:04;;;;;;;14.95;12.00;;;;;;;20.27;68.92;93991.31;4141408;28;20065;-67
2022/08/22 04:28:33;;;;;;;15.25;12.40;;;;;;;20.33;68.95;93998.38;4156250;28;20139;-67
2022/08/22 04:30:53;;;;;;;15.80;12.30;;;;;;;20.39;68.90;93986.75;4151648;28;20058;-67
2022/08/22 04:32:57;;;;;;;15.95;12.50;;;;;;;20.45;68.78;93999.91;4160074;28;20164;-67
2022/08/22 04:35:10;;;;;;;16.75;11.82;;;;;;;20.51;68.57;93997.38;4156638;28;20492;-66
2022/08/22 04:37:27;;;;;;;14.00;12.07;;;;;;;20.50;68.53;94007.19;4166619;28;20397;-66
2022/08/22 04:39:44;;;;;;;13.90;11.93;;;;;;;20.49;69.02;94013.56;4158127;28;20390;-68
2022/08/22 04:41:52;;;;;;;15.43;11.77;;;;;;;20.49;68.72;93999.44;4155347;28;20381;-67
2022/08/22 04:43:58;;;;;;;15.80;11.98;;;;;;;20.55;68.32;94004.63;4160768;28;20045;-68
2022/08/22 04:46:10;;;;;;;14.95;11.82;;;;;;;20.62;68.51;94004.50;4146687;28;20119;-68
2022/08/22 04:48:18;;;;;;;13.75;11.75;;;;;;;20.72;68.03;94009.22;4147720;28;20062;-68
2022/08/22 04:50:25;;;;;;;13.27;10.60;;;;;;;20.76;67.98;94003.19;4155394;28;20056;-68
2022/08/22 04:52:50;;;;;;;13.10;11.13;;;;;;;20.82;67.67;94009.38;4156774;28;20112;-67
2022/08/22 04:55:02;;;;;;;15.00;12.32;;;;;;;20.86;67.93;94008.69;4146635;28;20073;-67
2022/08/22 04:57:21;;;;;;;14.88;11.85;;;;;;;20.91;67.63;94007.97;4164971;28;20107;-67
2022/08/22 04:59:24;;;;;;;17.88;11.40;;;;;;;20.97;67.37;94012.34;4156782;28;20054;-67
2022/08/22 05:01:46;;;;;;;17.63;12.10;;;;;;;21.00;67.27;94006.53;4175271;28;20055;-67
2022/08/22 05:03:54;;;;;;;16.63;11.82;;;;;;;21.04;67.22;94012.19;4175624;28;20049;-69
2022/08/22 05:05:58;;;;;;;17.65;12.05;;;;;;;21.05;67.17;94013.78;4155752;28;20053;-66
2022/08/22 05:08:01;;;;;;;16.60;13.10;;;;;;;20.97;67.33;94009.69;4156689;28;20634;-67
2022/08/22 05:10:12;;;;;;;15.07;12.05;;;;;;;21.00;67.28;94011.84;4141129;28;20148;-67
2022/08/22 05:12:19;;;;;;;14.60;11.57;;;;;;;21.04;67.48;94020.97;4173626;28;20099;-67
2022/08/22 05:14:31;;;;;;;14.10;11.63;;;;;;;21.04;67.22;94028.16;4157439;28;20416;-67
2022/08/22 05:16:37;;;;;;;19.73;12.05;;;;;;;21.03;67.54;94024.66;4156989;28;20150;-67
2022/08/22 05:18:47;;;;;;;13.80;10.90;;;;;;;20.73;68.08;94029.47;4156467;28;20053;-68
2022/08/22 05:20:50;;;;;;;14.02;11.38;;;;;;;20.05;70.49;94034.50;4175029;28;20343;-68
2022/08/22 05:22:57;;;;;;;16.73;10.90;;;;;;;19.94;71.63;94040.63;4155296;28;20068;-69
2022/08/22 05:25:04;;;;;;;13.82;11.40;;;;;;;20.07;71.47;94035.06;4171608;28;20477;-67
2022/08/22 05:27:19;;;;;;;14.48;11.35;;;;;;;19.98;71.64;94036.47;4144177;28;20049;-67
2022/08/22 05:29:25;;;;;;;16.65;13.25;;;;;;;19.95;72.17;94043.06;4157307;28;20041;-67
2022/08/22 05:31:53;;;;;;;15.25;12.48;;;;;;;20.10;71.93;94034.59;4174989;28;20436;-67
2022/08/22 05:34:03;;;;;;;16.13;13.15;;;;;;;20.32;71.13;94033.97;4167156;28;20095;-68
2022/08/22 05:36:12;;;;;;;19.33;13.43;;;;;;;19.93;72.07;94049.66;4178037;28;20099;-67
2022/08/22 05:38:18;;;;;;;18.25;13.82;;;;;;;20.02;72.55;94046.38;4159621;28;20050;-70
2022/08/22 05:40:24;;;;;;;20.60;13.50;;;;;;;20.13;71.96;94041.28;4157551;28;20504;-65
2022/08/22 05:42:32;;;;;;;17.40;13.20;;;;;;;20.02;71.71;94046.38;4174872;28;20091;-69
2022/08/22 05:44:36;;;;;;;17.45;13.73;;;;;;;19.81;72.80;94050.47;4160564;28;20408;-67
2022/08/22 05:46:41;;;;;;;15.63;13.18;;;;;;;19.63;73.46;94051.34;4167364;28;20307;-69
2022/08/22 05:48:51;;;;;;;17.27;12.65;;;;;;;19.36;74.58;94050.16;4158534;28;20437;-67
2022/08/22 05:51:03;;;;;;;22.23;14.90;;;;;;;19.29;75.03;94060.09;4172516;28;20071;-66
2022/08/22 05:53:17;;;;;;;20.70;14.90;;;;;;;19.19;75.87;94056.16;4159503;28;20037;-67
2022/08/22 05:55:50;;;;;;;19.13;14.30;;;;;;;19.48;75.50;94069.59;4154310;28;20046;-66
2022/08/22 05:58:30;;;;;;;19.08;15.00;;;;;;;19.80;74.21;94074.63;4169358;28;20060;-67
2022/08/22 06:00:37;;;;;;;16.65;12.63;;;;;;;20.07;72.20;94074.13;4167528;28;20059;-67
2022/08/22 06:02:58;;;;;;;17.92;13.13;;;;;;;20.35;71.54;94074.22;4155390;28;20099;-67
2022/08/22 06:05:02;;;;;;;16.77;12.40;;;;;;;20.60;70.53;94073.94;4171775;28;20049;-66
2022/08/22 06:07:08;;;;;;;;;;;;;;;20.21;71.11;94083.47;4160038;28;20049;-66
2022/08/22 06:09:27;;;;;;;15.90;12.50;;;;;;;20.17;71.95;94074.34;4154523;28;20384;-68
2022/08/22 06:11:46;;;;;;;17.75;12.55;;;;;;;20.46;71.16;94075.22;4153708;28;20049;-69
2022/08/22 06:13:59;;;;;;;19.40;13.85;;;;;;;20.59;70.95;94068.88;4170201;28;20649;-69
2022/08/22 06:16:06;;;;;;;15.15;11.98;;;;;;;20.07;71.61;94068.81;4151604;28;20073;-69
2022/08/22 06:18:12;;;;;;;18.55;13.50;;;;;;;20.15;72.49;94069.25;4169795;28;20087;-69
2022/08/22 06:20:24;;;;;;;18.05;13.15;;;;;;;20.46;71.78;94070.72;4152932;28;20057;-67
2022/08/22 06:22:35;;;;;;;17.20;13.00;;;;;;;20.75;70.37;94067.28;4156781;28;20058;-68
2022/08/22 06:24:38;;;;;;;15.00;11.55;;;;;;;21.00;69.05;94066.97;4155340;28;20401;-68
2022/08/22 06:26:42;;;;;;;15.70;13.13;;;;;;;21.18;68.65;94073.94;4169913;28;20049;-74
2022/08/22 06:28:52;;;;;;;20.25;12.20;;;;;;;21.41;67.85;94078.31;4153269;28;20148;-72
2022/08/22 06:30:56;;;;;;;13.30;10.57;;;;;;;21.66;67.39;94078.75;4154373;28;20423;-68
2022/08/22 06:33:03;;;;;;;15.20;11.43;;;;;;;21.90;66.12;94073.25;4153394;28;20045;-68
2022/08/22 06:35:10;;;;;;;15.93;12.02;;;;;;;22.05;65.25;94070.78;4151330;28;20061;-67
2022/08/22 06:37:22;;;;;;;15.25;10.77;;;;;;;22.13;64.95;94079.41;4152675;28;20124;-66
2022/08/22 06:39:34;;;;;;;15.65;11.13;;;;;;;22.15;64.47;94079.97;4157590;28;20045;-66
2022/08/22 06:41:46;;;;;;;15.70;11.32;;;;;;;21.97;65.21;94065.88;4152147;28;20049;-66
2022/08/22 06:43:51;;;;;;;14.10;11.73;;;;;;;22.06;65.09;94066.25;4152342;28;20098;-65
2022/08/22 06:45:53;;;;;;;14.07;11.32;;;;;;;22.18;64.81;94071.50;4165635;28;20158;-67
2022/08/22 06:48:05;;;;;;;14.10;11.43;;;;;;;22.26;64.61;94074.59;4159747;28;20391;-66
2022/08/22 06:50:16;;;;;;;17.55;11.52;;;;;;;21.85;64.75;94073.16;4161015;28;20100;-69
2022/08/22 06:52:21;;;;;;;15.50;10.80;;;;;;;21.64;66.06;94075.53;4169979;28;20048;-67
2022/08/22 06:54:24;;;;;;;13.88;10.43;;;;;;;21.87;65.72;94073.72;4158184;28;20045;-67
2022/08/22 06:56:28;;;;;;;;;;;;;;;22.00;63.82;94075.25;4176071;28;20045;-67
2022/08/22 06:58:36;;;;;;;13.18;9.55;;;;;;;22.07;63.61;94076.69;4159002;28;19928;-67
2022/08/22 07:00:40;;;;;;;13.23;9.95;;;;;;;22.23;63.77;94082.25;4163423;28;20159;-70
2022/08/22 07:02:46;;;;;;;14.25;9.68;;;;;;;22.37;63.28;94075.53;4170821;28;20562;-80
2022/08/22 07:04:50;;;;;;;11.98;9.07;;;;;;;22.25;63.18;94072.97;4148063;28;20108;-71
2022/08/22 07:06:54;;;;;;;17.52;10.10;;;;;;;22.25;63.61;94074.81;4167932;28;20120;-67
2022/08/22 07:08:56;;;;;;;11.27;9.25;;;;;;;22.18;63.44;94074.19;4140039;28;20635;-68
2022/08/22 07:11:20;;;;;;;13.02;8.77;;;;;;;22.09;63.25;94071.94;4162644;28;20136;-66
2022/08/22 07:13:27;;;;;;;10.65;8.35;;;;;;;22.15;62.99;94075.44;4162589;28;20055;-69
2022/08/22 07:15:33;;;;;;;14.25;9.15;;;;;;;22.12;62.52;94075.16;4161935;28;20050;-68
2022/08/22 07:17:35;;;;;;;12.18;8.77;;;;;;;22.20;62.90;94082.72;4163096;28;20096;-68
2022/08/22 07:19:47;;;;;;;12.75;9.60;;;;;;;22.23;62.67;94079.59;4164794;28;20563;-68
2022/08/22 07:21:49;;;;;;;15.38;9.63;;;;;;;22.30;62.48;94077.53;4144376;28;20050;-81
2022/08/22 07:23:52;;;;;;;10.98;9.05;;;;;;;22.21;62.20;94084.34;4163086;28;20103;-69
2022/08/22 07:26:14;;;;;;;14.63;9.83;;;;;;;22.11;62.90;94084.19;4173019;28;20064;-68
2022/08/22 07:28:18;;;;;;;14.60;9.60;;;;;;;22.13;63.54;94088.22;4166846;28;20049;-67
2022/08/22 07:30:22;;;;;;;14.98;9.43;;;;;;;22.28;62.43;94085.81;4168357;28;20502;-69
2022/08/22 07:32:35;;;;;;;13.43;8.73;;;;;;;22.37;62.28;94091.53;4154798;28;20057;-69
2022/08/22 07:35:01;;;;;;;13.70;9.25;;;;;;;22.14;62.99;94081.84;4154131;28;20307;-67
2022/08/22 07:37:08;;;;;;;12.20;9.05;;;;;;;22.21;62.88;94084.34;4156038;28;20080;-67
2022/08/22 07:39:28;;;;;;;11.38;9.20;;;;;;;22.25;62.78;94082.81;4158992;28;20479;-68
2022/08/22 07:41:43;;;;;;;13.43;10.48;;;;;;;22.37;62.25;94085.38;4160471;28;20049;-68
2022/08/22 07:44:16;;;;;;;12.98;9.35;;;;;;;22.46;61.72;94081.25;4170315;28;20162;-68
2022/08/22 07:46:29;;;;;;;14.45;10.57;;;;;;;22.57;61.61;94079.50;4172948;28;20053;-67
2022/08/22 07:48:36;;;;;;;13.23;10.07;;;;;;;22.57;61.36;94079.50;4172211;28;20084;-68
2022/08/22 07:51:08;;;;;;;19.48;10.88;;;;;;;22.74;61.78;94079.44;4157668;28;20094;-67
2022/08/22 07:53:33;;;;;;;14.65;9.77;;;;;;;22.68;61.45;94081.22;4170722;28;20057;-68
2022/08/22 07:55:36;;;;;;;15.15;9.57;;;;;;;22.53;61.34;94081.06;4165025;28;20472;-68
2022/08/22 07:58:00;;;;;;;15.50;10.68;;;;;;;22.41;61.78;94073.97;4163459;28;20242;-68
2022/08/22 08:00:12;;;;;;;14.10;9.90;;;;;;;22.41;62.57;94079.31;4159527;28;20081;-70
2022/08/22 08:02:15;;;;;;;18.77;12.82;;;;;;;22.41;62.85;94073.97;4149638;28;20143;-69
2022/08/22 08:04:20;;;;;;;13.88;9.50;;;;;;;22.34;62.50;94078.66;4150607;28;20045;-67
2022/08/22 08:06:23;;;;;;;13.52;9.52;;;;;;;22.68;61.73;94067.88;4167169;28;20465;-69
2022/08/22 08:08:38;;;;;;;15.20;10.38;;;;;;;22.64;61.59;94072.91;4171919;28;20092;-69
2022/08/22 08:10:40;;;;;;;20.52;12.52;;;;;;;22.72;61.76;94066.31;4172757;28;20049;-68
2022/08/22 08:12:53;;;;;;;17.75;11.70;;;;;;;22.74;60.66;94069.56;4171917;28;20057;-71
2022/08/22 08:15:07;;;;;;;13.32;9.60;;;;;;;22.63;61.27;94062.50;4153225;28;20064;-68
2022/08/22 08:17:18;;;;;;;14.35;9.50;;;;;;;22.59;61.64;94066.72;4168640;28;20297;-69
2022/08/22 08:19:20;;;;;;;17.13;9.80;;;;;;;22.54;61.69;94071.97;4147329;28;20057;-70
2022/08/22 08:22:00;;;;;;;13.00;9.23;;;;;;;22.63;61.66;94071.31;4162053;28;20053;-69
2022/08/22 08:24:05;;;;;;;13.63;9.43;;;;;;;22.65;61.37;94069.19;4140795;28;20095;-70
2022/08/22 08:26:20;;;;;;;14.15;10.00;;;;;;;22.89;61.48;94064.38;4139963;28;20054;-67
2022/08/22 08:28:34;;;;;;;12.85;9.73;;;;;;;23.18;60.81;94064.16;4124456;28;20046;-71
2022/08/22 08:30:46;;;;;;;13.68;9.57;;;;;;;23.29;60.07;94063.19;4140748;28;20049;-67
2022/08/22 08:32:54;;;;;;;12.40;9.15;;;;;;;23.42;59.82;94063.81;4124393;28;20062;-68
2022/08/22 08:35:26;;;;;;;13.23;9.52;;;;;;;23.14;59.84;94065.72;4127096;28;20517;-69
2022/08/22 08:37:35;;;;;;;12.95;8.70;;;;;;;23.07;60.00;94062.44;4140689;28;20092;-67
2022/08/22 08:39:47;;;;;;;14.05;9.27;;;;;;;22.68;61.32;94071.34;4140014;28;20049;-70
2022/08/22 08:41:58;;;;;;;11.93;9.10;;;;;;;22.63;61.27;94065.16;4138747;28;20141;-69
2022/08/22 08:44:07;;;;;;;11.35;9.20;;;;;;;22.66;61.26;94064.66;4140016;28;20496;-68
2022/08/22 08:46:27;;;;;;;12.93;9.57;;;;;;;22.67;61.24;94067.06;4126187;28;20068;-68
2022/08/22 08:48:32;;;;;;;11.32;8.98;;;;;;;22.88;60.49;94057.41;4140033;28;20057;-68
2022/08/22 08:50:52;;;;;;;11.63;9.50;;;;;;;23.31;60.41;94061.06;4137315;28;20045;-69
2022/08/22 08:53:19;;;;;;;75.65;34.35;;;;;;;23.64;58.48;94061.06;4123384;28;20149;-71
2022/08/22 08:55:29;;;;;;;27.50;11.93;;;;;;;23.96;58.18;94055.69;4150643;28;20054;-68
2022/08/22 08:57:48;;;;;;;40.38;15.23;;;;;;;24.29;57.46;94054.56;4154674;28;20660;-70
2022/08/22 09:00:02;;;;;;;14.07;9.38;;;;;;;24.51;56.64;94053.63;4169043;28;20087;-68
2022/08/22 09:02:30;;;;;;;20.45;10.45;;;;;;;24.72;56.12;94054.50;4169319;28;20595;-69
2022/08/22 09:05:26;;;;;;;41.40;18.95;;;;;;;25.05;56.25;94055.91;4166309;28;20048;-68
2022/08/22 09:07:58;;;;;;;18.08;11.25;;;;;;;25.24;55.26;94050.91;4143769;28;20129;-68
2022/08/22 09:10:28;;;;;;;18.52;9.15;;;;;;;25.39;54.14;94049.31;4163817;28;20414;-68
2022/08/22 09:12:39;;;;;;;21.55;12.00;;;;;;;25.34;53.49;94050.91;4171266;28;20084;-70
2022/08/22 09:15:10;;;;;;;15.77;9.68;;;;;;;25.33;53.69;94046.59;4169781;28;20389;-68
2022/08/22 09:17:44;;;;;;;22.27;14.27;;;;;;;25.49;54.04;94054.66;4166512;28;20049;-70
2022/08/22 09:19:58;;;;;;;13.63;9.10;;;;;;;25.63;53.81;94047.69;4159788;28;20049;-69
2022/08/22 09:22:16;;;;;;;16.60;12.75;;;;;;;25.70;52.98;94050.09;4171051;28;20073;-69
2022/08/22 09:24:39;;;;;;;15.25;10.43;;;;;;;25.64;53.64;94048.50;4158780;28;20119;-70
2022/08/22 09:27:01;;;;;;;63.60;33.20;;;;;;;25.57;53.64;94048.75;4155633;28;20060;-69
2022/08/22 09:29:36;;;;;;;16.02;9.48;;;;;;;25.48;53.68;94048.50;4148659;28;20045;-68
2022/08/22 09:32:33;;;;;;;28.15;16.40;;;;;;;25.40;53.78;94048.22;4146260;28;20140;-68
2022/08/22 09:35:01;;;;;;;18.95;11.68;;;;;;;25.40;54.46;94054.38;4170604;28;20045;-68
2022/08/22 09:37:18;;;;;;;20.38;10.77;;;;;;;25.36;55.21;94049.81;4170949;28;20142;-67
2022/08/22 09:39:32;;;;;;;90.18;29.13;;;;;;;25.57;54.66;94054.13;4147724;28;20037;-68
2022/08/22 09:41:39;;;;;;;23.65;12.02;;;;;;;25.78;53.35;94051.44;4160988;28;20140;-69
2022/08/22 09:44:05;;;;;;;47.65;28.67;;;;;;;25.77;53.58;94049.81;4161683;28;20431;-68
2022/08/22 09:46:22;;;;;;;12.23;9.75;;;;;;;26.13;53.16;94045.25;4155158;28;20111;-70
2022/08/22 09:49:08;;;;;;;76.82;31.17;;;;;;;26.45;52.52;94041.41;4174240;28;20732;-67
2022/08/22 09:51:15;;;;;;;12.88;9.70;;;;;;;26.57;50.90;94036.56;4154358;28;20408;-69
2022/08/22 09:53:44;;;;;;;12.18;9.48;;;;;;;26.58;50.94;94040.84;4164670;28;20056;-68
2022/08/22 09:56:14;;;;;;;13.93;9.85;;;;;;;26.51;51.22;94033.03;4161697;28;20113;-68
2022/08/22 09:58:34;;;;;;;31.52;13.15;;;;;;;26.46;51.48;94026.91;4165236;28;20060;-68
2022/08/22 10:00:43;;;;;;;16.58;9.25;;;;;;;26.41;51.21;94033.06;4162436;28;20068;-67
2022/08/22 10:02:52;;;;;;;10.80;8.85;;;;;;;26.24;50.81;94027.22;4161797;28;20076;-69
2022/08/22 10:05:18;;;;;;;11.35;9.65;;;;;;;26.17;51.23;94022.16;4162311;28;20046;-69
2022/08/22 10:07:53;;;;;;;22.63;10.93;;;;;;;26.07;51.85;94017.63;4145500;28;20072;-68
2022/08/22 10:10:20;;;;;;;18.80;10.65;;;;;;;26.15;52.12;94017.03;4169477;28;20132;-67
2022/08/22 10:12:40;;;;;;;26.35;13.55;;;;;;;26.29;52.13;94013.81;4168132;28;20061;-69
2022/08/22 10:15:03;;;;;;;12.10;9.17;;;;;;;26.33;51.70;94009.50;4157038;28;20151;-68
2022/08/22 10:17:17;;;;;;;14.85;9.10;;;;;;;26.25;51.52;94010.84;4172289;28;20341;-67
2022/08/22 10:19:35;;;;;;;15.27;10.27;;;;;;;26.19;51.95;94013.84;4156445;28;20077;-67
2022/08/22 10:21:59;;;;;;;16.52;9.88;;;;;;;26.20;51.22;94010.06;4156100;28;20073;-65
2022/08/22 10:24:25;;;;;;;16.45;10.18;;;;;;;26.21;52.15;94009.00;4174175;28;20048;-68
2022/08/22 10:26:50;;;;;;;14.50;9.57;;;;;;;26.19;52.13;94003.09;4173157;28;20053;-68
2022/08/22 10:29:33;;;;;;;11.70;8.77;;;;;;;26.40;51.47;94001.16;4156555;28;20247;-67
2022/08/22 10:31:40;;;;;;;12.23;9.57;;;;;;;26.58;50.41;93995.16;4172925;28;20437;-67
2022/08/22 10:34:07;;;;;;;11.50;8.65;;;;;;;26.80;49.44;93999.34;4155620;28;20574;-68